Time;durP1;ratioP1;P1;durP2;ratioP2;P2;SDS_P1;SDS_P2;PMS_P1;PMS_P2;Temp;Humidity;BMP_temperature;BMP_pressure;BME280_temperature;BME280_humidity;BME280_pressure;Samples;Min_cycle;Max_cycle;Signal;HPM_P1;HPM_P2
2022/06/21 00:01:53;;;;;;;12.07;2.10;;;10.30;99.90;;;;;;5074637;28;20507;-82
2022/06/21 00:04:19;;;;;;;10.57;2.22;;;10.30;99.90;;;;;;5071900;28;20040;-82
2022/06/21 00:06:45;;;;;;;6.05;1.70;;;10.30;99.90;;;;;;5073368;28;20072;-82
2022/06/21 00:09:13;;;;;;;12.85;2.70;;;10.20;99.90;;;;;;5072363;28;20080;-82
2022/06/21 00:11:39;;;;;;;8.73;2.25;;;10.20;99.90;;;;;;5073770;28;20041;-82
2022/06/21 00:14:05;;;;;;;5.80;1.85;;;10.10;99.90;;;;;;5050785;28;20052;-82
2022/06/21 00:16:31;;;;;;;6.10;1.95;;;10.10;99.90;;;;;;5073127;28;20044;-82
2022/06/21 00:18:58;;;;;;;6.15;2.40;;;10.00;99.90;;;;;;5071217;28;20054;-82
2022/06/21 00:21:27;;;;;;;8.52;1.92;;;9.90;99.90;;;;;;5073309;28;20148;-81
2022/06/21 00:23:54;;;;;;;6.07;2.63;;;9.90;99.90;;;;;;5073309;28;20055;-82
2022/06/21 00:26:24;;;;;;;9.98;2.22;;;9.80;99.90;;;;;;5072291;28;20049;-81
2022/06/21 00:28:50;;;;;;;6.05;1.70;;;9.80;99.90;;;;;;5073054;28;20084;-81
2022/06/21 00:31:24;;;;;;;4.90;1.63;;;9.80;99.90;;;;;;5074302;28;20102;-82
2022/06/21 00:33:50;;;;;;;6.95;2.28;;;9.80;99.90;;;;;;5072526;28;20455;-82
2022/06/21 00:36:32;;;;;;;9.07;2.42;;;9.70;99.90;;;;;;5074004;28;20472;-82
2022/06/21 00:39:00;;;;;;;4.63;1.33;;;9.70;99.90;;;;;;5072086;28;20109;-82
2022/06/21 00:41:51;;;;;;;6.10;1.27;;;9.70;99.90;;;;;;5072695;28;20106;-82
2022/06/21 00:44:26;;;;;;;8.23;2.17;;;9.70;99.90;;;;;;5073135;28;20047;-82
2022/06/21 00:47:01;;;;;;;;;;;9.80;99.90;;;;;;5072498;28;20052;-82
2022/06/21 00:49:31;;;;;;;10.70;2.28;;;9.50;99.90;;;;;;5072700;28;19920;-81
2022/06/21 00:52:12;;;;;;;6.88;2.13;;;9.50;99.90;;;;;;5071660;28;20056;-81
2022/06/21 00:54:54;;;;;;;5.45;1.80;;;9.50;99.90;;;;;;5071237;28;20051;-81
2022/06/21 00:57:24;;;;;;;8.98;2.15;;;9.40;99.90;;;;;;5071554;28;20063;-81
2022/06/21 00:59:53;;;;;;;4.43;1.80;;;9.40;99.90;;;;;;5051700;28;20102;-81
2022/06/21 01:02:33;;;;;;;6.88;2.33;;;9.40;99.90;;;;;;5052022;28;20124;-81
2022/06/21 01:05:01;;;;;;;7.97;2.22;;;9.50;99.90;;;;;;5052435;28;20047;-81
2022/06/21 01:07:28;;;;;;;8.20;2.25;;;9.50;99.90;;;;;;5051558;28;20056;-81
2022/06/21 01:10:06;;;;;;;7.15;1.80;;;9.50;99.90;;;;;;5048513;28;20041;-81
2022/06/21 01:12:55;;;;;;;9.73;2.20;;;9.50;99.90;;;;;;5052289;28;20460;-81
2022/06/21 01:15:43;;;;;;;4.05;1.95;;;9.50;99.90;;;;;;5044047;28;20061;-81
2022/06/21 01:18:10;;;;;;;4.25;1.85;;;9.50;99.90;;;;;;5058021;28;20127;-81
2022/06/21 01:20:43;;;;;;;4.43;1.95;;;9.40;99.90;;;;;;5072194;28;20525;-81
2022/06/21 01:23:50;;;;;;;8.20;2.30;;;9.50;99.90;;;;;;5070205;28;20048;-81
2022/06/21 01:26:35;;;;;;;8.18;2.38;;;9.40;99.90;;;;;;5064344;28;20053;-81
2022/06/21 01:29:02;;;;;;;6.53;1.92;;;9.40;99.90;;;;;;5068736;28;20056;-81
2022/06/21 01:31:30;;;;;;;4.57;2.28;;;9.30;99.90;;;;;;5071973;28;20078;-82
2022/06/21 01:33:56;;;;;;;5.90;1.98;;;9.20;99.90;;;;;;5071216;28;20041;-82
2022/06/21 01:36:28;;;;;;;6.13;1.95;;;9.20;99.90;;;;;;5071568;28;20040;-82
2022/06/21 01:39:03;;;;;;;4.25;2.03;;;9.10;99.90;;;;;;5069628;28;20385;-81
2022/06/21 01:41:46;;;;;;;9.02;2.10;;;9.10;99.90;;;;;;5068681;28;20123;-81
2022/06/21 01:44:29;;;;;;;5.38;2.35;;;9.10;99.90;;;;;;5057380;28;20581;-81
2022/06/21 01:46:56;;;;;;;9.60;2.72;;;9.10;99.90;;;;;;5055305;28;20048;-81
2022/06/21 01:49:28;;;;;;;4.85;2.78;;;9.10;99.90;;;;;;5071269;28;20041;-81
2022/06/21 01:51:58;;;;;;;5.88;1.98;;;9.10;99.90;;;;;;5055294;28;20047;-82
2022/06/21 01:54:28;;;;;;;8.98;2.33;;;9.10;99.90;;;;;;5065702;28;20041;-82
2022/06/21 01:56:55;;;;;;;10.35;2.00;;;9.00;99.90;;;;;;5050924;28;20048;-82
2022/06/21 01:59:27;;;;;;;6.70;2.35;;;9.00;99.90;;;;;;5072438;28;20045;-82
2022/06/21 02:02:01;;;;;;;5.25;2.00;;;8.90;99.90;;;;;;5072205;28;20040;-81
2022/06/21 02:04:32;;;;;;;10.02;2.40;;;8.90;99.90;;;;;;5073912;28;20037;-82
2022/06/21 02:07:05;;;;;;;8.82;2.67;;;8.90;99.90;;;;;;5075948;28;20068;-82
2022/06/21 02:09:36;;;;;;;9.50;2.53;;;8.90;99.90;;;;;;5074609;28;20045;-82
2022/06/21 02:12:09;;;;;;;4.70;2.42;;;8.90;99.90;;;;;;5058174;28;20040;-81
2022/06/21 02:14:39;;;;;;;5.63;2.88;;;8.90;99.90;;;;;;5074345;28;20053;-82
2022/06/21 02:17:27;;;;;;;4.75;2.15;;;8.90;99.90;;;;;;5075284;28;20106;-82
2022/06/21 02:20:12;;;;;;;7.22;2.38;;;8.90;99.90;;;;;;5074347;28;20516;-81
2022/06/21 02:22:40;;;;;;;7.72;3.03;;;8.90;99.90;;;;;;5075739;28;20124;-81
2022/06/21 02:25:09;;;;;;;6.30;2.67;;;8.90;99.90;;;;;;5073416;28;20500;-82
2022/06/21 02:27:36;;;;;;;7.65;2.65;;;8.90;99.90;;;;;;5076645;28;20045;-81
2022/06/21 02:30:07;;;;;;;6.82;2.72;;;9.00;99.90;;;;;;5074148;28;20059;-81
2022/06/21 02:32:36;;;;;;;7.43;2.45;;;9.10;99.90;;;;;;5074691;28;20051;-82
2022/06/21 02:35:23;;;;;;;5.82;2.80;;;9.10;99.90;;;;;;5074160;28;20049;-82
2022/06/21 02:37:51;;;;;;;5.25;2.70;;;9.20;99.90;;;;;;5075228;28;20177;-82
2022/06/21 02:40:24;;;;;;;5.72;2.97;;;9.10;99.90;;;;;;5074739;28;20040;-82
2022/06/21 02:42:53;;;;;;;5.88;2.83;;;9.10;99.90;;;;;;5075216;28;20506;-82
2022/06/21 02:45:28;;;;;;;3.97;2.30;;;9.10;99.90;;;;;;5073107;28;20049;-82
2022/06/21 02:47:57;;;;;;;8.60;2.75;;;9.10;99.90;;;;;;5075371;28;20384;-81
2022/06/21 02:50:22;;;;;;;4.78;3.28;;;9.00;99.90;;;;;;5073617;28;20056;-82
2022/06/21 02:52:50;;;;;;;6.28;3.67;;;9.10;99.90;;;;;;5074333;28;20162;-82
2022/06/21 02:55:58;;;;;;;5.55;2.70;;;9.10;99.90;;;;;;5070182;28;20444;-81
2022/06/21 02:58:38;;;;;;;5.28;3.03;;;9.10;99.90;;;;;;5062950;28;20537;-82
2022/06/21 03:01:10;;;;;;;4.82;2.60;;;9.10;99.90;;;;;;5073093;28;20084;-81
2022/06/21 03:03:36;;;;;;;5.03;2.60;;;9.20;99.90;;;;;;5074922;28;20388;-82
2022/06/21 03:06:07;;;;;;;7.57;3.47;;;9.20;99.90;;;;;;5074798;28;20510;-81
2022/06/21 03:08:35;;;;;;;5.38;2.85;;;9.30;99.90;;;;;;5066299;28;20052;-81
2022/06/21 03:11:01;;;;;;;7.75;2.67;;;9.30;99.90;;;;;;5055838;28;20091;-82
2022/06/21 03:13:34;;;;;;;6.25;3.20;;;9.40;99.90;;;;;;5059202;28;20071;-82
2022/06/21 03:16:05;;;;;;;5.30;3.13;;;9.40;99.90;;;;;;5072387;28;20091;-81
2022/06/21 03:18:36;;;;;;;6.88;2.80;;;9.50;99.90;;;;;;5075857;28;20048;-81
2022/06/21 03:21:04;;;;;;;7.50;2.92;;;9.50;99.90;;;;;;5073808;28;20037;-82
2022/06/21 03:23:31;;;;;;;5.15;2.80;;;9.40;99.90;;;;;;5055613;28;20426;-82
2022/06/21 03:26:03;;;;;;;11.02;3.10;;;9.40;99.90;;;;;;5054357;28;20041;-82
2022/06/21 03:28:34;;;;;;;5.13;2.53;;;9.30;99.90;;;;;;5073338;28;20117;-82
2022/06/21 03:31:18;;;;;;;5.72;2.75;;;9.30;99.90;;;;;;5074037;28;20056;-82
2022/06/21 03:33:49;;;;;;;4.50;2.67;;;9.30;99.90;;;;;;5055513;28;20036;-81
2022/06/21 03:36:22;;;;;;;7.00;2.83;;;9.20;99.90;;;;;;5067302;28;20456;-82
2022/06/21 03:39:00;;;;;;;6.53;2.83;;;9.20;99.90;;;;;;5075339;28;20040;-82
2022/06/21 03:41:44;;;;;;;4.68;2.67;;;9.20;99.90;;;;;;5074164;28;20489;-82
2022/06/21 03:44:28;;;;;;;5.13;2.78;;;9.20;99.90;;;;;;5057376;28;20036;-82
2022/06/21 03:47:03;;;;;;;6.40;3.50;;;9.10;99.90;;;;;;5055414;28;20051;-82
2022/06/21 03:49:36;;;;;;;6.63;2.95;;;9.10;99.90;;;;;;5073118;28;20428;-82
2022/06/21 03:52:42;;;;;;;9.43;4.70;;;9.10;99.90;;;;;;5072766;28;20086;-82
2022/06/21 03:55:20;;;;;;;6.68;3.97;;;9.10;99.90;;;;;;5073953;28;20048;-82
2022/06/21 03:58:03;;;;;;;8.25;4.30;;;9.10;99.90;;;;;;5058835;28;20047;-82
2022/06/21 04:00:36;;;;;;;7.22;3.97;;;9.10;99.90;;;;;;5089004;28;20043;-82
2022/06/21 04:03:09;;;;;;;10.13;5.28;;;9.10;99.90;;;;;;5074076;28;20044;-82
2022/06/21 04:05:45;;;;;;;7.47;4.20;;;9.20;99.90;;;;;;5072719;28;20037;-82
2022/06/21 04:08:17;;;;;;;9.93;4.82;;;9.20;99.90;;;;;;5073670;28;20404;-82
2022/06/21 04:10:56;;;;;;;9.15;4.47;;;9.20;99.90;;;;;;5071596;28;20044;-82
2022/06/21 04:13:34;;;;;;;9.00;4.80;;;9.30;99.90;;;;;;5073521;28;20063;-83
2022/06/21 04:16:22;;;;;;;10.93;4.78;;;9.30;99.90;;;;;;5073969;28;20044;-82
2022/06/21 04:19:02;;;;;;;10.13;5.18;;;9.40;99.90;;;;;;5070269;28;20123;-82
2022/06/21 04:21:50;;;;;;;13.07;4.57;;;9.50;99.90;;;;;;5071997;28;20044;-82
2022/06/21 04:24:54;;;;;;;8.00;5.10;;;9.50;99.90;;;;;;5072253;28;20041;-82
2022/06/21 04:27:29;;;;;;;13.45;4.93;;;9.60;99.90;;;;;;5049920;28;20180;-82
2022/06/21 04:30:11;;;;;;;7.22;4.63;;;9.60;99.90;;;;;;5053106;28;20052;-82
2022/06/21 04:32:50;;;;;;;8.60;4.90;;;9.70;99.90;;;;;;5068760;28;20044;-83
2022/06/21 04:35:24;;;;;;;6.68;4.72;;;9.80;99.90;;;;;;5073155;28;20444;-83
2022/06/21 04:37:56;;;;;;;7.82;4.60;;;9.80;99.90;;;;;;5053332;28;20045;-82
2022/06/21 04:40:52;;;;;;;6.03;4.30;;;9.90;99.90;;;;;;5052766;28;20049;-83
2022/06/21 04:43:24;;;;;;;;;;;10.00;99.90;;;;;;5071836;28;20036;-82
2022/06/21 04:45:59;;;;;;;8.38;4.18;;;10.10;99.90;;;;;;5087228;28;20387;-82
2022/06/21 04:48:39;;;;;;;6.78;4.43;;;10.10;99.90;;;;;;5072943;28;20396;-82
2022/06/21 04:51:13;;;;;;;6.47;4.18;;;10.20;99.90;;;;;;5073180;28;20076;-82
2022/06/21 04:53:48;;;;;;;8.07;4.45;;;10.30;99.90;;;;;;5072955;28;20044;-83
2022/06/21 04:56:32;;;;;;;13.70;4.95;;;10.40;99.90;;;;;;5054393;28;20460;-83
2022/06/21 04:58:59;;;;;;;12.25;4.90;;;10.50;99.90;;;;;;5057756;28;20050;-84
2022/06/21 05:01:34;;;;;;;10.45;4.45;;;10.60;99.90;;;;;;5089309;28;20052;-83
2022/06/21 05:04:39;;;;;;;9.68;4.38;;;10.80;99.90;;;;;;5073566;28;20036;-84
2022/06/21 05:07:17;;;;;;;7.43;3.92;;;10.90;99.90;;;;;;5011138;28;20441;-84
2022/06/21 05:09:43;;;;;;;9.07;4.45;;;11.10;99.90;;;;;;5023231;28;20053;-84
2022/06/21 05:12:37;;;;;;;6.15;3.55;;;11.20;99.90;;;;;;5044738;28;20076;-84
2022/06/21 05:15:09;;;;;;;6.72;3.85;;;11.40;99.90;;;;;;5069738;28;20068;-84
2022/06/21 05:17:39;;;;;;;4.65;3.30;;;11.50;99.90;;;;;;5072106;28;20488;-83
2022/06/21 05:20:12;;;;;;;5.78;3.70;;;11.60;99.90;;;;;;5072771;28;20124;-84
2022/06/21 05:22:44;;;;;;;6.90;3.72;;;11.70;99.90;;;;;;5071923;28;20131;-83
2022/06/21 05:25:35;;;;;;;4.93;2.88;;;11.70;99.90;;;;;;5072435;28;20059;-83
2022/06/21 05:28:16;;;;;;;8.85;3.47;;;11.80;99.90;;;;;;5051583;28;20053;-82
2022/06/21 05:30:56;;;;;;;7.55;3.53;;;11.90;99.90;;;;;;5053320;28;20112;-82
2022/06/21 05:33:21;;;;;;;11.13;3.40;;;12.10;99.90;;;;;;5056857;28;20036;-83
2022/06/21 05:35:51;;;;;;;7.72;3.67;;;12.20;99.90;;;;;;5072622;28;20036;-83
2022/06/21 05:38:28;;;;;;;8.93;4.47;;;12.40;99.90;;;;;;5078968;28;20138;-83
2022/06/21 05:40:59;;;;;;;5.55;3.00;;;12.40;99.90;;;;;;5078803;28;20106;-83
2022/06/21 05:43:39;;;;;;;9.25;2.83;;;12.50;99.90;;;;;;5079526;28;20044;-83
2022/06/21 05:46:12;;;;;;;6.85;3.55;;;12.60;99.90;;;;;;5079871;28;20048;-83
2022/06/21 05:48:41;;;;;;;9.75;3.63;;;12.70;99.90;;;;;;5078039;28;20131;-83
2022/06/21 05:51:14;;;;;;;5.55;2.80;;;12.70;99.90;;;;;;5080013;28;20098;-82
2022/06/21 05:53:45;;;;;;;7.28;3.28;;;12.80;99.90;;;;;;5078998;28;20049;-83
2022/06/21 05:56:14;;;;;;;7.72;3.50;;;12.80;99.90;;;;;;5078978;28;20056;-82
2022/06/21 05:58:53;;;;;;;7.50;3.33;;;12.90;99.90;;;;;;5078597;28;20131;-83
2022/06/21 06:01:34;;;;;;;8.95;3.55;;;13.00;99.90;;;;;;5080450;28;20135;-82
2022/06/21 06:04:32;;;;;;;5.45;3.60;;;13.00;99.90;;;;;;5088738;28;20171;-82
2022/06/21 06:06:59;;;;;;;9.95;4.25;;;13.10;99.90;;;;;;5049366;28;20056;-82
2022/06/21 06:09:34;;;;;;;5.03;3.85;;;13.10;99.90;;;;;;5058812;28;20048;-82
2022/06/21 06:12:15;;;;;;;7.38;4.05;;;13.10;99.90;;;;;;5074943;28;20387;-83
2022/06/21 06:14:51;;;;;;;7.82;3.95;;;13.20;99.90;;;;;;5077363;28;20060;-82
2022/06/21 06:17:33;;;;;;;10.95;4.25;;;13.30;99.90;;;;;;5073499;28;20052;-82
2022/06/21 06:20:25;;;;;;;9.63;4.22;;;13.40;99.90;;;;;;5058386;28;20049;-83
2022/06/21 06:23:16;;;;;;;9.95;3.80;;;13.50;99.90;;;;;;5077353;28;20037;-83
2022/06/21 06:25:54;;;;;;;8.55;4.18;;;13.60;99.90;;;;;;5063528;28;20052;-83
2022/06/21 06:28:43;;;;;;;7.65;4.70;;;13.70;99.90;;;;;;5048319;28;20053;-83
2022/06/21 06:31:23;;;;;;;9.07;3.60;;;13.90;99.90;;;;;;5076803;28;20044;-82
2022/06/21 06:33:55;;;;;;;4.85;2.15;;;14.00;99.90;;;;;;5084724;28;20049;-82
2022/06/21 06:36:33;;;;;;;15.15;3.03;;;14.20;99.90;;;;;;5075558;28;20476;-82
2022/06/21 06:39:00;;;;;;;5.43;2.28;;;14.30;99.90;;;;;;5077245;28;20071;-82
2022/06/21 06:41:37;;;;;;;12.32;2.30;;;14.40;99.90;;;;;;5064960;28;20047;-84
2022/06/21 06:44:10;;;;;;;8.48;2.17;;;14.40;99.90;;;;;;5074384;28;20476;-83
2022/06/21 06:46:40;;;;;;;9.18;2.33;;;14.40;99.90;;;;;;5064179;28;20392;-83
2022/06/21 06:49:16;;;;;;;11.45;2.40;;;14.40;99.90;;;;;;5062180;28;20036;-82
2022/06/21 06:52:03;;;;;;;5.30;1.63;;;14.40;99.90;;;;;;5056085;28;20060;-81
2022/06/21 06:54:54;;;;;;;10.07;2.67;;;14.40;99.90;;;;;;5072623;28;20499;-82
2022/06/21 06:57:26;;;;;;;9.25;2.45;;;14.60;99.90;;;;;;5069830;28;20492;-81
2022/06/21 06:59:55;;;;;;;6.68;2.70;;;14.70;99.90;;;;;;5073675;28;20403;-82
2022/06/21 07:02:38;;;;;;;7.22;2.90;;;14.80;99.90;;;;;;5058078;28;20072;-83
2022/06/21 07:05:17;;;;;;;6.55;3.03;;;15.00;99.90;;;;;;5069932;28;20052;-84
2022/06/21 07:07:51;;;;;;;6.88;2.88;;;15.20;99.90;;;;;;5037183;28;20052;-84
2022/06/21 07:10:20;;;;;;;8.07;2.28;;;15.30;99.90;;;;;;5056634;28;20483;-84
2022/06/21 07:12:47;;;;;;;11.15;2.63;;;15.40;99.90;;;;;;5056795;28;20040;-83
2022/06/21 07:15:14;;;;;;;12.32;2.30;;;15.50;99.90;;;;;;5055716;28;20091;-83
2022/06/21 07:17:53;;;;;;;7.88;2.47;;;15.50;99.90;;;;;;5070200;28;20052;-82
2022/06/21 07:20:21;;;;;;;10.80;2.83;;;15.70;99.90;;;;;;5070350;28;20041;-83
2022/06/21 07:22:47;;;;;;;5.53;2.30;;;15.80;99.90;;;;;;5056022;28;20037;-84
2022/06/21 07:25:38;;;;;;;11.77;2.92;;;15.90;99.90;;;;;;5056107;28;20041;-83
2022/06/21 07:28:20;;;;;;;8.15;2.15;;;16.00;99.90;;;;;;5054985;28;20049;-83
2022/06/21 07:30:49;;;;;;;5.53;2.00;;;16.20;99.90;;;;;;5061438;28;20044;-84
2022/06/21 07:33:37;;;;;;;14.05;3.30;;;16.30;99.90;;;;;;5078427;28;20041;-84
2022/06/21 07:36:10;;;;;;;8.55;1.85;;;16.30;99.90;;;;;;5070552;28;20055;-84
2022/06/21 07:38:36;;;;;;;7.22;1.90;;;16.20;99.90;;;;;;5090578;28;20049;-84
2022/06/21 07:41:06;;;;;;;5.00;1.98;;;16.10;99.90;;;;;;5071260;28;20051;-84
2022/06/21 07:43:38;;;;;;;5.47;1.98;;;16.00;99.90;;;;;;5063187;28;20550;-84
2022/06/21 07:46:07;;;;;;;9.88;2.10;;;15.90;99.90;;;;;;5054946;28;20401;-84
2022/06/21 07:48:46;;;;;;;8.68;1.98;;;15.70;99.90;;;;;;5058049;28;20098;-83
2022/06/21 07:51:19;;;;;;;8.15;1.85;;;15.80;99.90;;;;;;5085934;28;20052;-83
2022/06/21 07:53:51;;;;;;;7.50;2.00;;;15.80;99.90;;;;;;5053540;28;20577;-83
2022/06/21 07:56:25;;;;;;;7.38;2.28;;;15.90;99.90;;;;;;5069760;28;20053;-81
2022/06/21 07:59:20;;;;;;;9.32;2.22;;;16.00;99.90;;;;;;5053577;28;20045;-84
2022/06/21 08:07:48;;;;;;;6.35;2.13;;;16.60;99.90;;;;;;5053187;28;20141;-84
2022/06/21 08:10:38;;;;;;;7.00;2.30;;;16.80;99.90;;;;;;5055186;28;20055;-83
2022/06/21 08:13:04;;;;;;;9.23;2.38;;;16.90;99.90;;;;;;5072856;28;20055;-84
2022/06/21 08:15:39;;;;;;;7.95;2.20;;;17.00;99.90;;;;;;5056896;28;20132;-84
2022/06/21 08:18:11;;;;;;;8.88;2.22;;;17.00;99.90;;;;;;5055327;28;20041;-85
2022/06/21 08:20:57;;;;;;;6.45;2.05;;;17.20;99.90;;;;;;5065145;28;20484;-85
2022/06/21 08:23:43;;;;;;;4.10;2.28;;;17.20;99.90;;;;;;5054123;28;20124;-85
2022/06/21 08:26:17;;;;;;;11.35;2.20;;;17.20;99.90;;;;;;5050459;28;20044;-83
2022/06/21 08:28:57;;;;;;;7.50;2.65;;;17.30;99.90;;;;;;5070789;28;20041;-84
2022/06/21 08:31:42;;;;;;;7.60;2.00;;;17.30;99.90;;;;;;5056217;28;20040;-83
2022/06/21 08:34:23;;;;;;;4.70;2.00;;;17.30;99.90;;;;;;5066980;28;20419;-82
2022/06/21 08:36:55;;;;;;;7.70;1.80;;;17.30;99.90;;;;;;5048518;28;20047;-84
2022/06/21 08:39:32;;;;;;;5.85;1.98;;;17.20;99.90;;;;;;5051653;28;20044;-84
2022/06/21 08:42:01;;;;;;;7.35;1.67;;;17.20;99.90;;;;;;5054603;28;20041;-84
2022/06/21 08:44:42;;;;;;;4.10;1.52;;;17.10;99.90;;;;;;5051565;28;20063;-85
2022/06/21 08:47:14;;;;;;;4.47;1.40;;;17.00;99.90;;;;;;5071074;28;20051;-83
2022/06/21 08:49:42;;;;;;;4.88;2.03;;;17.10;99.90;;;;;;5072382;28;20110;-83
2022/06/21 08:52:38;;;;;;;8.85;2.10;;;17.10;99.90;;;;;;5070100;28;20045;-85
2022/06/21 08:55:31;;;;;;;6.82;2.15;;;17.10;99.90;;;;;;5070969;28;20045;-84
2022/06/21 08:58:05;;;;;;;13.70;2.30;;;17.10;99.90;;;;;;5054142;28;20068;-84
2022/06/21 09:01:15;;;;;;;4.97;1.77;;;17.10;99.90;;;;;;5054184;28;20059;-84
2022/06/21 09:03:59;;;;;;;8.23;1.88;;;17.20;99.90;;;;;;5042594;28;20045;-85
2022/06/21 09:06:46;;;;;;;6.43;1.75;;;17.40;99.90;;;;;;5065730;28;20044;-84
2022/06/21 09:09:40;;;;;;;6.88;2.20;;;17.40;99.90;;;;;;5054851;28;20135;-86
2022/06/21 09:12:25;;;;;;;4.53;1.40;;;17.50;99.90;;;;;;5036589;28;20159;-84
2022/06/21 09:15:07;;;;;;;5.75;1.95;;;17.60;99.90;;;;;;5075723;28;20057;-83
2022/06/21 09:17:54;;;;;;;5.88;2.30;;;17.70;99.90;;;;;;5055583;28;20041;-84
2022/06/21 09:20:59;;;;;;;6.00;1.38;;;17.70;99.90;;;;;;5053012;28;20076;-83
2022/06/21 09:23:39;;;;;;;8.40;2.00;;;17.90;99.90;;;;;;5058960;28;20080;-84
2022/06/21 09:26:19;;;;;;;3.72;1.20;;;18.00;99.90;;;;;;5058504;28;20039;-84
2022/06/21 09:28:55;;;;;;;4.47;1.52;;;18.10;99.90;;;;;;5059081;28;20128;-84
2022/06/21 09:31:38;;;;;;;5.20;1.25;;;18.10;99.90;;;;;;5060435;28;20048;-83
2022/06/21 09:34:30;;;;;;;6.30;1.63;;;18.20;99.90;;;;;;5068977;28;20036;-84
2022/06/21 09:37:01;;;;;;;6.00;1.70;;;18.30;99.90;;;;;;5052245;28;20128;-85
2022/06/21 09:39:33;;;;;;;6.35;1.95;;;18.30;99.90;;;;;;5067782;28;20504;-84
2022/06/21 09:42:25;;;;;;;3.85;1.40;;;18.30;99.90;;;;;;5058556;28;20052;-84
2022/06/21 09:45:38;;;;;;;5.15;1.67;;;18.30;99.90;;;;;;5052128;28;20174;-84
2022/06/21 09:48:30;;;;;;;3.85;0.90;;;18.30;99.90;;;;;;5034913;28;20408;-83
2022/06/21 09:51:17;;;;;;;3.88;1.20;;;18.20;99.90;;;;;;5061035;28;20566;-83
2022/06/21 09:54:01;;;;;;;7.68;1.70;;;18.20;99.90;;;;;;5081333;28;20055;-85
2022/06/21 09:56:49;;;;;;;5.60;1.42;;;18.20;99.90;;;;;;5071206;28;20040;-84
2022/06/21 09:59:21;;;;;;;2.38;1.05;;;18.20;99.90;;;;;;5071834;28;20051;-84
2022/06/21 10:02:05;;;;;;;6.20;1.65;;;18.40;99.90;;;;;;5054489;28;20498;-85
2022/06/21 10:04:59;;;;;;;7.18;1.65;;;18.40;99.90;;;;;;5070531;28;20060;-84
2022/06/21 10:07:40;;;;;;;5.30;1.45;;;18.50;99.90;;;;;;5051867;28;20447;-84
2022/06/21 10:10:47;;;;;;;4.55;1.67;;;18.60;99.90;;;;;;5052736;28;20091;-84
2022/06/21 10:13:26;;;;;;;2.63;1.50;;;18.80;99.90;;;;;;5052690;28;20045;-83
2022/06/21 10:16:26;;;;;;;3.97;1.40;;;18.90;99.90;;;;;;5058902;28;20045;-83
2022/06/21 10:19:11;;;;;;;4.22;1.15;;;18.80;99.90;;;;;;5065551;28;20492;-83
2022/06/21 10:21:49;;;;;;;2.75;1.15;;;18.90;99.90;;;;;;5053805;28;20049;-84
2022/06/21 10:24:40;;;;;;;3.47;1.40;;;18.90;99.90;;;;;;5057769;28;20055;-83
2022/06/21 10:27:41;;;;;;;5.53;1.13;;;18.90;99.90;;;;;;5069581;28;20505;-84
2022/06/21 10:30:21;;;;;;;3.28;1.30;;;19.00;99.90;;;;;;5073502;28;20106;-82
2022/06/21 10:33:05;;;;;;;3.80;1.30;;;19.00;99.90;;;;;;5057468;28;20044;-82
2022/06/21 10:35:54;;;;;;;3.72;0.95;;;19.00;99.90;;;;;;5055886;28;20110;-82
2022/06/21 10:38:26;;;;;;;3.85;1.17;;;18.90;99.90;;;;;;5045119;28;20045;-83
2022/06/21 10:41:36;;;;;;;3.80;1.20;;;18.90;99.90;;;;;;5070293;28;20082;-82
2022/06/21 10:44:27;;;;;;;5.30;1.33;;;19.00;99.90;;;;;;5060629;28;20064;-85
2022/06/21 10:47:01;;;;;;;4.22;1.83;;;18.90;99.90;;;;;;5063546;28;20044;-82
2022/06/21 10:50:04;;;;;;;4.28;1.10;;;18.80;99.90;;;;;;5059021;28;20106;-84
2022/06/21 10:52:45;;;;;;;4.50;1.10;;;18.80;99.90;;;;;;5054252;28;20061;-83
2022/06/21 10:55:17;;;;;;;3.58;1.40;;;18.80;99.90;;;;;;5069677;28;20393;-83
2022/06/21 10:58:15;;;;;;;5.18;1.70;;;18.90;99.90;;;;;;5074032;28;20103;-83
2022/06/21 11:03:56;;;;;;;5.70;1.25;;;19.10;99.90;;;;;;5074682;28;20118;-83
2022/06/21 11:06:37;;;;;;;2.78;1.02;;;19.40;99.90;;;;;;5075031;28;20082;-83
2022/06/21 11:09:09;;;;;;;4.32;1.30;;;19.50;99.90;;;;;;5073457;28;20098;-84
2022/06/21 11:11:55;;;;;;;3.92;1.27;;;19.60;99.90;;;;;;5074651;28;20040;-83
2022/06/21 11:14:30;;;;;;;3.72;1.35;;;19.70;99.90;;;;;;5067408;28;20149;-83
2022/06/21 11:16:55;;;;;;;;;;;19.70;99.90;;;;;;5055009;28;20049;-83
2022/06/21 11:19:24;;;;;;;6.10;1.50;;;19.60;99.90;;;;;;5071746;28;20028;-84
2022/06/21 11:22:14;;;;;;;6.47;1.48;;;19.60;99.90;;;;;;5055588;28;20081;-85
2022/06/21 11:25:05;;;;;;;3.05;1.10;;;19.70;99.90;;;;;;5055740;28;20051;-85
2022/06/21 11:27:35;;;;;;;4.97;1.40;;;19.60;99.90;;;;;;5054581;28;20056;-83
2022/06/21 11:30:13;;;;;;;3.58;1.15;;;19.50;99.90;;;;;;5070629;28;20083;-83
2022/06/21 11:33:04;;;;;;;2.97;1.05;;;19.40;99.90;;;;;;5074054;28;20124;-81
2022/06/21 11:36:01;;;;;;;3.95;1.20;;;19.40;99.90;;;;;;5073966;28;20044;-81
2022/06/21 11:38:32;;;;;;;2.90;1.10;;;19.50;99.90;;;;;;5071795;28;20044;-80
2022/06/21 11:41:05;;;;;;;6.47;1.67;;;19.50;99.90;;;;;;5053018;28;20048;-82
2022/06/21 11:44:12;;;;;;;4.70;1.48;;;19.70;99.90;;;;;;5056204;28;20048;-80
2022/06/21 11:46:46;;;;;;;8.07;1.20;;;19.80;99.90;;;;;;5055111;28;20134;-80
2022/06/21 11:49:30;;;;;;;2.58;1.15;;;19.90;99.90;;;;;;5053781;28;20445;-81
2022/06/21 11:52:24;;;;;;;4.78;1.00;;;20.00;99.90;;;;;;5055102;28;20410;-81
2022/06/21 11:55:01;;;;;;;4.60;1.40;;;20.10;99.90;;;;;;5066844;28;20055;-81
2022/06/21 11:58:13;;;;;;;3.33;1.50;;;20.10;99.90;;;;;;5072167;28;20041;-81
2022/06/21 12:01:11;;;;;;;3.72;1.42;;;20.10;99.90;;;;;;5050199;28;20122;-80
2022/06/21 12:03:56;;;;;;;2.67;1.13;;;20.20;99.90;;;;;;5057299;28;20446;-80
2022/06/21 12:06:29;;;;;;;2.88;1.20;;;20.20;99.90;;;;;;5054657;28;20052;-81
2022/06/21 12:09:03;;;;;;;5.38;1.05;;;20.30;99.90;;;;;;5073981;28;20093;-82
2022/06/21 12:11:54;;;;;;;3.60;1.27;;;20.40;99.90;;;;;;5088516;28;20229;-81
2022/06/21 12:14:42;;;;;;;3.95;1.27;;;20.40;99.90;;;;;;5053183;28;20110;-81
2022/06/21 12:17:13;;;;;;;5.85;1.20;;;20.50;99.90;;;;;;5054515;28;20059;-81
2022/06/21 12:19:42;;;;;;;4.65;1.10;;;20.50;99.90;;;;;;5074505;28;20041;-81
2022/06/21 12:22:10;;;;;;;5.25;1.25;;;20.60;99.90;;;;;;5071080;28;20158;-81
2022/06/21 12:24:38;;;;;;;4.60;1.35;;;20.60;99.90;;;;;;5073093;28;20040;-81
2022/06/21 12:27:10;;;;;;;3.67;1.02;;;20.60;99.90;;;;;;5071854;28;20048;-81
2022/06/21 12:29:36;;;;;;;3.13;1.00;;;20.70;99.90;;;;;;5072115;28;20057;-81
2022/06/21 12:32:05;;;;;;;2.47;0.70;;;20.70;99.90;;;;;;5073055;28;20529;-80
2022/06/21 12:34:43;;;;;;;5.13;1.33;;;20.80;99.90;;;;;;5054387;28;20114;-82
2022/06/21 12:37:15;;;;;;;4.05;1.02;;;20.90;99.90;;;;;;5052212;28;20048;-80
2022/06/21 12:40:22;;;;;;;6.00;0.90;;;20.90;99.90;;;;;;5071963;28;20056;-80
2022/06/21 12:42:57;;;;;;;6.35;1.13;;;20.90;99.90;;;;;;5053975;28;20049;-83
2022/06/21 12:45:40;;;;;;;5.88;1.20;;;20.80;98.30;;;;;;5051763;28;20123;-78
2022/06/21 12:48:47;;;;;;;2.40;1.10;;;20.80;98.70;;;;;;5056341;28;20049;-81
2022/06/21 12:51:22;;;;;;;4.75;1.23;;;20.80;97.80;;;;;;5051928;28;20064;-81
2022/06/21 12:54:16;;;;;;;1.88;0.95;;;20.80;99.40;;;;;;5054535;28;20408;-83
2022/06/21 12:56:48;;;;;;;2.72;0.77;;;20.90;97.10;;;;;;5052758;28;20417;-80
2022/06/21 12:59:19;;;;;;;;;;;20.80;99.90;;;;;;5067677;28;20613;-80
2022/06/21 13:02:03;;;;;;;2.97;1.05;;;20.80;99.90;;;;;;5084026;28;19920;-79
2022/06/21 13:04:44;;;;;;;2.50;0.90;;;20.80;99.20;;;;;;5091830;28;20052;-82
2022/06/21 13:07:34;;;;;;;3.42;0.77;;;20.70;99.50;;;;;;5055158;28;20097;-80
2022/06/21 13:10:00;;;;;;;2.72;1.08;;;20.70;99.90;;;;;;5053005;28;20128;-80
2022/06/21 13:13:15;;;;;;;4.05;1.33;;;20.70;99.90;;;;;;5053803;28;20127;-80
2022/06/21 13:16:10;;;;;;;1.83;1.10;;;20.80;99.90;;;;;;5059930;28;20133;-81
2022/06/21 13:19:04;;;;;;;5.47;1.05;;;20.70;99.70;;;;;;5032544;28;20396;-80
2022/06/21 13:21:33;;;;;;;2.70;0.80;;;20.70;99.00;;;;;;5067276;28;20052;-81
2022/06/21 13:24:14;;;;;;;3.08;1.13;;;20.70;99.90;;;;;;5052401;28;20060;-81
2022/06/21 13:26:46;;;;;;;2.05;0.90;;;20.70;99.90;;;;;;5068048;28;20468;-80
2022/06/21 13:29:30;;;;;;;2.47;0.90;;;20.80;99.90;;;;;;5062972;28;20046;-81
2022/06/21 13:32:01;;;;;;;2.75;0.90;;;20.90;98.90;;;;;;5059988;28;20048;-80
2022/06/21 13:34:43;;;;;;;2.85;1.05;;;20.90;99.90;;;;;;5052665;28;20114;-81
2022/06/21 13:37:15;;;;;;;2.88;1.00;;;20.90;99.90;;;;;;5059778;28;20044;-81
2022/06/21 13:39:50;;;;;;;2.60;0.90;;;20.90;99.10;;;;;;5072197;28;20053;-82
2022/06/21 13:42:37;;;;;;;;;;;21.00;99.20;;;;;;5071341;28;20392;-79
2022/06/21 13:45:31;;;;;;;6.70;1.10;;;21.00;96.70;;;;;;5089079;28;19966;-80
2022/06/21 13:48:25;;;;;;;3.67;1.00;;;21.10;98.20;;;;;;5070888;28;20044;-80
2022/06/21 13:51:21;;;;;;;2.33;1.15;;;21.20;98.70;;;;;;5060437;28;20056;-80
2022/06/21 13:53:52;;;;;;;3.42;1.10;;;21.40;98.10;;;;;;5050245;28;20055;-81
2022/06/21 13:56:39;;;;;;;5.10;1.20;;;21.50;97.40;;;;;;5063887;28;20055;-82
2022/06/21 13:59:30;;;;;;;7.75;1.40;;;21.70;96.00;;;;;;5068193;28;20154;-78